sensor_id;sensor_type;location;lat;lon;timestamp;P1;durP1;ratioP1;P2;durP2;ratioP2
65597;SDS011;52267;51.984;20.956;2023-11-19T00:01:47;38.20;;;17.10;;
65597;SDS011;52267;51.984;20.956;2023-11-19T00:04:13;36.30;;;16.70;;
65597;SDS011;52267;51.984;20.956;2023-11-19T00:06:41;35.50;;;17.20;;
65597;SDS011;52267;51.984;20.956;2023-11-19T00:09:08;40.20;;;19.30;;
65597;SDS011;52267;51.984;20.956;2023-11-19T00:11:35;36.60;;;17.80;;
65597;SDS011;52267;51.984;20.956;2023-11-19T00:14:03;35.70;;;17.20;;
65597;SDS011;52267;51.984;20.956;2023-11-19T00:16:30;36.80;;;17.70;;
65597;SDS011;52267;51.984;20.956;2023-11-19T00:18:58;45.10;;;18.40;;
65597;SDS011;52267;51.984;20.956;2023-11-19T00:21:26;38.40;;;18.30;;
65597;SDS011;52267;51.984;20.956;2023-11-19T00:23:55;35.90;;;16.00;;
65597;SDS011;52267;51.984;20.956;2023-11-19T00:26:24;35.00;;;18.10;;
65597;SDS011;52267;51.984;20.956;2023-11-19T00:28:52;35.90;;;17.80;;
65597;SDS011;52267;51.984;20.956;2023-11-19T00:31:19;39.30;;;17.80;;
65597;SDS011;52267;51.984;20.956;2023-11-19T00:33:47;37.20;;;18.40;;
65597;SDS011;52267;51.984;20.956;2023-11-19T00:36:13;39.00;;;17.70;;
65597;SDS011;52267;51.984;20.956;2023-11-19T00:38:40;38.20;;;18.00;;
65597;SDS011;52267;51.984;20.956;2023-11-19T00:41:07;35.80;;;19.40;;
65597;SDS011;52267;51.984;20.956;2023-11-19T00:43:34;39.10;;;19.10;;
65597;SDS011;52267;51.984;20.956;2023-11-19T00:46:02;39.70;;;18.30;;
65597;SDS011;52267;51.984;20.956;2023-11-19T00:48:33;39.90;;;17.40;;
65597;SDS011;52267;51.984;20.956;2023-11-19T00:51:00;33.30;;;18.00;;
65597;SDS011;52267;51.984;20.956;2023-11-19T00:53:27;42.20;;;20.40;;
65597;SDS011;52267;51.984;20.956;2023-11-19T00:55:54;42.80;;;19.10;;
65597;SDS011;52267;51.984;20.956;2023-11-19T00:58:21;41.90;;;19.30;;
65597;SDS011;52267;51.984;20.956;2023-11-19T01:00:48;44.40;;;19.20;;
65597;SDS011;52267;51.984;20.956;2023-11-19T01:03:15;43.80;;;19.40;;
65597;SDS011;52267;51.984;20.956;2023-11-19T01:05:42;33.30;;;15.90;;
65597;SDS011;52267;51.984;20.956;2023-11-19T01:08:11;32.00;;;18.00;;
65597;SDS011;52267;51.984;20.956;2023-11-19T01:10:38;38.30;;;18.50;;
65597;SDS011;52267;51.984;20.956;2023-11-19T01:13:05;35.80;;;17.80;;
65597;SDS011;52267;51.984;20.956;2023-11-19T01:15:32;37.50;;;18.40;;
65597;SDS011;52267;51.984;20.956;2023-11-19T01:17:59;38.30;;;18.00;;
65597;SDS011;52267;51.984;20.956;2023-11-19T01:20:29;40.30;;;18.10;;
65597;SDS011;52267;51.984;20.956;2023-11-19T01:22:56;38.30;;;18.40;;
65597;SDS011;52267;51.984;20.956;2023-11-19T01:25:23;36.70;;;19.80;;
65597;SDS011;52267;51.984;20.956;2023-11-19T01:27:50;39.60;;;18.00;;
65597;SDS011;52267;51.984;20.956;2023-11-19T01:30:17;42.50;;;18.90;;
65597;SDS011;52267;51.984;20.956;2023-11-19T01:32:44;38.90;;;17.80;;
65597;SDS011;52267;51.984;20.956;2023-11-19T01:35:11;42.10;;;18.70;;
65597;SDS011;52267;51.984;20.956;2023-11-19T01:37:38;39.40;;;17.90;;
65597;SDS011;52267;51.984;20.956;2023-11-19T01:40:05;40.70;;;17.50;;
65597;SDS011;52267;51.984;20.956;2023-11-19T01:42:37;40.20;;;17.90;;
65597;SDS011;52267;51.984;20.956;2023-11-19T01:45:05;45.60;;;18.30;;
65597;SDS011;52267;51.984;20.956;2023-11-19T01:47:34;40.10;;;17.30;;
65597;SDS011;52267;51.984;20.956;2023-11-19T01:50:03;40.80;;;16.80;;
65597;SDS011;52267;51.984;20.956;2023-11-19T01:52:34;33.70;;;16.20;;
65597;SDS011;52267;51.984;20.956;2023-11-19T01:55:06;38.50;;;15.30;;
65597;SDS011;52267;51.984;20.956;2023-11-19T01:57:35;38.80;;;16.80;;
65597;SDS011;52267;51.984;20.956;2023-11-19T02:00:04;41.90;;;17.80;;
65597;SDS011;52267;51.984;20.956;2023-11-19T02:02:38;39.00;;;17.30;;
65597;SDS011;52267;51.984;20.956;2023-11-19T02:05:06;44.20;;;18.80;;
65597;SDS011;52267;51.984;20.956;2023-11-19T02:07:34;37.90;;;18.50;;
65597;SDS011;52267;51.984;20.956;2023-11-19T02:10:01;36.70;;;17.40;;
65597;SDS011;52267;51.984;20.956;2023-11-19T02:12:29;39.90;;;18.30;;
65597;SDS011;52267;51.984;20.956;2023-11-19T02:14:56;38.30;;;16.90;;
65597;SDS011;52267;51.984;20.956;2023-11-19T02:17:29;42.00;;;18.50;;
65597;SDS011;52267;51.984;20.956;2023-11-19T02:20:01;38.30;;;17.40;;
65597;SDS011;52267;51.984;20.956;2023-11-19T02:22:28;33.00;;;15.20;;
65597;SDS011;52267;51.984;20.956;2023-11-19T02:24:59;39.70;;;16.40;;
65597;SDS011;52267;51.984;20.956;2023-11-19T02:30:15;34.10;;;15.20;;
65597;SDS011;52267;51.984;20.956;2023-11-19T02:32:42;38.20;;;17.70;;
65597;SDS011;52267;51.984;20.956;2023-11-19T02:35:09;34.20;;;15.40;;
65597;SDS011;52267;51.984;20.956;2023-11-19T02:37:38;45.00;;;20.60;;
65597;SDS011;52267;51.984;20.956;2023-11-19T02:40:06;43.10;;;19.20;;
65597;SDS011;52267;51.984;20.956;2023-11-19T02:42:35;45.70;;;18.80;;
65597;SDS011;52267;51.984;20.956;2023-11-19T02:45:02;40.50;;;18.30;;
65597;SDS011;52267;51.984;20.956;2023-11-19T02:47:35;43.70;;;19.00;;
65597;SDS011;52267;51.984;20.956;2023-11-19T02:50:03;41.70;;;17.50;;
65597;SDS011;52267;51.984;20.956;2023-11-19T02:52:30;44.30;;;20.50;;
65597;SDS011;52267;51.984;20.956;2023-11-19T02:55:01;41.90;;;20.40;;
65597;SDS011;52267;51.984;20.956;2023-11-19T02:57:31;38.70;;;16.40;;
65597;SDS011;52267;51.984;20.956;2023-11-19T02:59:59;43.90;;;20.00;;
65597;SDS011;52267;51.984;20.956;2023-11-19T03:02:26;43.60;;;20.60;;
65597;SDS011;52267;51.984;20.956;2023-11-19T03:05:00;43.00;;;18.40;;
65597;SDS011;52267;51.984;20.956;2023-11-19T03:07:27;39.70;;;18.70;;
65597;SDS011;52267;51.984;20.956;2023-11-19T03:09:54;32.80;;;13.90;;
65597;SDS011;52267;51.984;20.956;2023-11-19T03:12:21;38.90;;;18.10;;
65597;SDS011;52267;51.984;20.956;2023-11-19T03:14:48;36.50;;;17.60;;
65597;SDS011;52267;51.984;20.956;2023-11-19T03:17:17;40.00;;;16.50;;
65597;SDS011;52267;51.984;20.956;2023-11-19T03:19:45;38.70;;;17.30;;
65597;SDS011;52267;51.984;20.956;2023-11-19T03:22:12;49.90;;;22.10;;
65597;SDS011;52267;51.984;20.956;2023-11-19T03:24:39;39.20;;;18.40;;
65597;SDS011;52267;51.984;20.956;2023-11-19T03:27:06;26.80;;;12.40;;
65597;SDS011;52267;51.984;20.956;2023-11-19T03:29:33;44.60;;;18.50;;
65597;SDS011;52267;51.984;20.956;2023-11-19T03:32:00;37.60;;;17.60;;
65597;SDS011;52267;51.984;20.956;2023-11-19T03:34:27;38.90;;;17.40;;
65597;SDS011;52267;51.984;20.956;2023-11-19T03:36:54;36.50;;;17.00;;
65597;SDS011;52267;51.984;20.956;2023-11-19T03:39:22;37.60;;;16.70;;
65597;SDS011;52267;51.984;20.956;2023-11-19T03:41:51;39.70;;;18.90;;
65597;SDS011;52267;51.984;20.956;2023-11-19T03:44:18;45.50;;;19.20;;
65597;SDS011;52267;51.984;20.956;2023-11-19T03:46:46;32.10;;;17.50;;
65597;SDS011;52267;51.984;20.956;2023-11-19T03:49:13;42.30;;;18.60;;
65597;SDS011;52267;51.984;20.956;2023-11-19T03:51:40;42.40;;;19.40;;
65597;SDS011;52267;51.984;20.956;2023-11-19T03:54:07;42.00;;;19.10;;
65597;SDS011;52267;51.984;20.956;2023-11-19T03:56:35;42.70;;;17.70;;
65597;SDS011;52267;51.984;20.956;2023-11-19T03:59:02;36.50;;;16.20;;
65597;SDS011;52267;51.984;20.956;2023-11-19T04:01:29;36.60;;;15.30;;
65597;SDS011;52267;51.984;20.956;2023-11-19T04:03:56;41.10;;;18.60;;
65597;SDS011;52267;51.984;20.956;2023-11-19T04:06:23;40.20;;;17.70;;
65597;SDS011;52267;51.984;20.956;2023-11-19T04:08:50;46.50;;;21.60;;
65597;SDS011;52267;51.984;20.956;2023-11-19T04:11:17;47.70;;;19.40;;
65597;SDS011;52267;51.984;20.956;2023-11-19T04:13:44;37.70;;;18.70;;
65597;SDS011;52267;51.984;20.956;2023-11-19T04:16:11;40.60;;;17.90;;
65597;SDS011;52267;51.984;20.956;2023-11-19T04:18:38;45.60;;;17.70;;
65597;SDS011;52267;51.984;20.956;2023-11-19T04:21:06;45.20;;;18.60;;
65597;SDS011;52267;51.984;20.956;2023-11-19T04:23:34;39.30;;;17.00;;
65597;SDS011;52267;51.984;20.956;2023-11-19T04:26:04;39.80;;;17.60;;
65597;SDS011;52267;51.984;20.956;2023-11-19T04:28:31;36.40;;;16.80;;
65597;SDS011;52267;51.984;20.956;2023-11-19T04:30:58;38.10;;;16.40;;
65597;SDS011;52267;51.984;20.956;2023-11-19T04:33:25;40.10;;;18.40;;
65597;SDS011;52267;51.984;20.956;2023-11-19T04:35:52;37.40;;;16.50;;
65597;SDS011;52267;51.984;20.956;2023-11-19T04:38:19;38.30;;;17.30;;
65597;SDS011;52267;51.984;20.956;2023-11-19T04:40:46;43.00;;;17.90;;
65597;SDS011;52267;51.984;20.956;2023-11-19T04:43:13;40.60;;;19.20;;
65597;SDS011;52267;51.984;20.956;2023-11-19T04:45:40;36.50;;;16.70;;
65597;SDS011;52267;51.984;20.956;2023-11-19T04:48:07;37.00;;;17.30;;
65597;SDS011;52267;51.984;20.956;2023-11-19T04:50:35;39.00;;;17.20;;
65597;SDS011;52267;51.984;20.956;2023-11-19T04:53:02;32.70;;;16.50;;
65597;SDS011;52267;51.984;20.956;2023-11-19T04:55:30;39.30;;;17.90;;
65597;SDS011;52267;51.984;20.956;2023-11-19T04:57:57;34.20;;;16.30;;
65597;SDS011;52267;51.984;20.956;2023-11-19T05:00:27;36.40;;;17.40;;
65597;SDS011;52267;51.984;20.956;2023-11-19T05:02:54;32.90;;;16.00;;
65597;SDS011;52267;51.984;20.956;2023-11-19T05:05:21;34.20;;;15.70;;
65597;SDS011;52267;51.984;20.956;2023-11-19T05:07:48;30.80;;;14.90;;
65597;SDS011;52267;51.984;20.956;2023-11-19T05:10:15;28.00;;;13.10;;
65597;SDS011;52267;51.984;20.956;2023-11-19T05:12:42;19.70;;;9.70;;
65597;SDS011;52267;51.984;20.956;2023-11-19T05:15:09;17.00;;;8.10;;
65597;SDS011;52267;51.984;20.956;2023-11-19T05:17:38;18.70;;;8.90;;
65597;SDS011;52267;51.984;20.956;2023-11-19T05:20:06;18.10;;;10.40;;
65597;SDS011;52267;51.984;20.956;2023-11-19T05:22:40;20.20;;;11.00;;
65597;SDS011;52267;51.984;20.956;2023-11-19T05:25:08;21.60;;;8.50;;
65597;SDS011;52267;51.984;20.956;2023-11-19T05:27:37;17.20;;;8.50;;
65597;SDS011;52267;51.984;20.956;2023-11-19T05:30:05;19.00;;;9.20;;
65597;SDS011;52267;51.984;20.956;2023-11-19T05:32:37;22.80;;;11.30;;
65597;SDS011;52267;51.984;20.956;2023-11-19T05:35:04;20.10;;;8.30;;
65597;SDS011;52267;51.984;20.956;2023-11-19T05:37:31;17.40;;;7.70;;
65597;SDS011;52267;51.984;20.956;2023-11-19T05:39:58;17.10;;;7.80;;
65597;SDS011;52267;51.984;20.956;2023-11-19T05:42:26;16.20;;;7.80;;
65597;SDS011;52267;51.984;20.956;2023-11-19T05:44:54;12.60;;;6.10;;
65597;SDS011;52267;51.984;20.956;2023-11-19T05:47:21;10.90;;;6.20;;
65597;SDS011;52267;51.984;20.956;2023-11-19T05:49:48;10.40;;;4.50;;
65597;SDS011;52267;51.984;20.956;2023-11-19T05:52:15;13.70;;;6.60;;
65597;SDS011;52267;51.984;20.956;2023-11-19T05:54:42;13.70;;;7.10;;
65597;SDS011;52267;51.984;20.956;2023-11-19T05:57:10;13.30;;;6.80;;
65597;SDS011;52267;51.984;20.956;2023-11-19T05:59:37;13.80;;;7.60;;
65597;SDS011;52267;51.984;20.956;2023-11-19T06:02:04;15.10;;;7.20;;
65597;SDS011;52267;51.984;20.956;2023-11-19T06:04:31;12.30;;;7.30;;
65597;SDS011;52267;51.984;20.956;2023-11-19T06:06:58;13.20;;;6.40;;
65597;SDS011;52267;51.984;20.956;2023-11-19T06:09:25;15.00;;;7.80;;
65597;SDS011;52267;51.984;20.956;2023-11-19T06:11:52;13.30;;;7.00;;
65597;SDS011;52267;51.984;20.956;2023-11-19T06:14:19;13.60;;;7.60;;
65597;SDS011;52267;51.984;20.956;2023-11-19T06:16:46;16.40;;;7.80;;
65597;SDS011;52267;51.984;20.956;2023-11-19T06:19:13;16.20;;;7.50;;
65597;SDS011;52267;51.984;20.956;2023-11-19T06:21:40;15.20;;;7.80;;
65597;SDS011;52267;51.984;20.956;2023-11-19T06:24:08;14.80;;;7.50;;
65597;SDS011;52267;51.984;20.956;2023-11-19T06:26:35;15.50;;;7.80;;
65597;SDS011;52267;51.984;20.956;2023-11-19T06:29:02;15.90;;;8.50;;
65597;SDS011;52267;51.984;20.956;2023-11-19T06:31:29;15.70;;;8.20;;
65597;SDS011;52267;51.984;20.956;2023-11-19T06:33:56;16.80;;;8.40;;
65597;SDS011;52267;51.984;20.956;2023-11-19T06:36:23;14.50;;;8.60;;
65597;SDS011;52267;51.984;20.956;2023-11-19T06:38:50;15.10;;;7.90;;
65597;SDS011;52267;51.984;20.956;2023-11-19T06:41:17;15.80;;;8.20;;
65597;SDS011;52267;51.984;20.956;2023-11-19T06:43:44;14.30;;;8.50;;
65597;SDS011;52267;51.984;20.956;2023-11-19T06:46:16;15.10;;;8.20;;
65597;SDS011;52267;51.984;20.956;2023-11-19T06:48:44;16.00;;;7.90;;
65597;SDS011;52267;51.984;20.956;2023-11-19T06:51:12;16.90;;;8.70;;
65597;SDS011;52267;51.984;20.956;2023-11-19T06:53:39;15.30;;;8.30;;
65597;SDS011;52267;51.984;20.956;2023-11-19T06:56:18;16.50;;;7.60;;
65597;SDS011;52267;51.984;20.956;2023-11-19T06:58:46;16.20;;;8.10;;
65597;SDS011;52267;51.984;20.956;2023-11-19T07:01:15;17.90;;;9.20;;
65597;SDS011;52267;51.984;20.956;2023-11-19T07:03:42;15.80;;;8.00;;
65597;SDS011;52267;51.984;20.956;2023-11-19T07:06:10;17.30;;;9.10;;
65597;SDS011;52267;51.984;20.956;2023-11-19T07:08:43;18.10;;;9.90;;
65597;SDS011;52267;51.984;20.956;2023-11-19T07:11:14;17.50;;;9.10;;
65597;SDS011;52267;51.984;20.956;2023-11-19T07:13:43;16.80;;;8.80;;
65597;SDS011;52267;51.984;20.956;2023-11-19T07:16:10;18.30;;;8.80;;
65597;SDS011;52267;51.984;20.956;2023-11-19T07:18:37;19.30;;;9.30;;
65597;SDS011;52267;51.984;20.956;2023-11-19T07:21:04;18.90;;;9.90;;
65597;SDS011;52267;51.984;20.956;2023-11-19T07:23:32;20.70;;;10.50;;
65597;SDS011;52267;51.984;20.956;2023-11-19T07:26:00;18.00;;;9.90;;
65597;SDS011;52267;51.984;20.956;2023-11-19T07:28:28;19.50;;;9.80;;
65597;SDS011;52267;51.984;20.956;2023-11-19T07:30:55;20.80;;;8.80;;
65597;SDS011;52267;51.984;20.956;2023-11-19T07:33:25;17.20;;;9.60;;
65597;SDS011;52267;51.984;20.956;2023-11-19T07:35:52;20.30;;;9.80;;
65597;SDS011;52267;51.984;20.956;2023-11-19T07:38:19;19.60;;;10.40;;
65597;SDS011;52267;51.984;20.956;2023-11-19T07:40:46;18.30;;;9.90;;
65597;SDS011;52267;51.984;20.956;2023-11-19T07:43:14;23.90;;;11.30;;
65597;SDS011;52267;51.984;20.956;2023-11-19T07:45:42;17.70;;;9.30;;
65597;SDS011;52267;51.984;20.956;2023-11-19T07:48:11;21.50;;;11.30;;
65597;SDS011;52267;51.984;20.956;2023-11-19T07:50:39;20.70;;;10.30;;
65597;SDS011;52267;51.984;20.956;2023-11-19T07:53:09;23.40;;;11.40;;
65597;SDS011;52267;51.984;20.956;2023-11-19T07:55:36;21.00;;;11.40;;
65597;SDS011;52267;51.984;20.956;2023-11-19T07:58:03;23.10;;;13.40;;
65597;SDS011;52267;51.984;20.956;2023-11-19T08:00:31;19.00;;;9.60;;
65597;SDS011;52267;51.984;20.956;2023-11-19T08:02:58;20.50;;;10.80;;
65597;SDS011;52267;51.984;20.956;2023-11-19T08:05:25;23.00;;;12.20;;
65597;SDS011;52267;51.984;20.956;2023-11-19T08:07:52;20.70;;;9.60;;
65597;SDS011;52267;51.984;20.956;2023-11-19T08:10:20;20.30;;;9.60;;
65597;SDS011;52267;51.984;20.956;2023-11-19T08:12:47;17.40;;;9.70;;
65597;SDS011;52267;51.984;20.956;2023-11-19T08:15:14;20.80;;;10.60;;
65597;SDS011;52267;51.984;20.956;2023-11-19T08:17:42;18.90;;;9.60;;
65597;SDS011;52267;51.984;20.956;2023-11-19T08:20:10;15.40;;;9.20;;
65597;SDS011;52267;51.984;20.956;2023-11-19T08:22:37;18.90;;;11.30;;
65597;SDS011;52267;51.984;20.956;2023-11-19T08:25:05;16.40;;;8.80;;
65597;SDS011;52267;51.984;20.956;2023-11-19T08:27:32;11.40;;;5.40;;
65597;SDS011;52267;51.984;20.956;2023-11-19T08:30:00;17.80;;;7.90;;
65597;SDS011;52267;51.984;20.956;2023-11-19T08:32:27;15.80;;;7.50;;
65597;SDS011;52267;51.984;20.956;2023-11-19T08:34:54;17.40;;;10.90;;
65597;SDS011;52267;51.984;20.956;2023-11-19T08:37:21;16.20;;;8.60;;
65597;SDS011;52267;51.984;20.956;2023-11-19T08:39:49;21.30;;;11.10;;
65597;SDS011;52267;51.984;20.956;2023-11-19T08:42:17;17.80;;;9.30;;
65597;SDS011;52267;51.984;20.956;2023-11-19T08:44:48;17.40;;;10.10;;
65597;SDS011;52267;51.984;20.956;2023-11-19T08:47:17;19.00;;;8.80;;
65597;SDS011;52267;51.984;20.956;2023-11-19T08:49:51;18.10;;;9.80;;
65597;SDS011;52267;51.984;20.956;2023-11-19T08:52:19;8.80;;;5.80;;
65597;SDS011;52267;51.984;20.956;2023-11-19T08:54:46;17.70;;;8.80;;
65597;SDS011;52267;51.984;20.956;2023-11-19T08:57:13;14.80;;;8.10;;
65597;SDS011;52267;51.984;20.956;2023-11-19T08:59:40;14.00;;;6.90;;
65597;SDS011;52267;51.984;20.956;2023-11-19T09:02:07;17.70;;;9.70;;
65597;SDS011;52267;51.984;20.956;2023-11-19T09:04:35;19.60;;;8.60;;
65597;SDS011;52267;51.984;20.956;2023-11-19T09:07:03;20.50;;;10.30;;
65597;SDS011;52267;51.984;20.956;2023-11-19T09:09:30;14.70;;;7.50;;
65597;SDS011;52267;51.984;20.956;2023-11-19T09:11:57;15.50;;;7.60;;
65597;SDS011;52267;51.984;20.956;2023-11-19T09:14:24;17.70;;;8.60;;
65597;SDS011;52267;51.984;20.956;2023-11-19T09:16:52;21.10;;;11.30;;
65597;SDS011;52267;51.984;20.956;2023-11-19T09:19:19;20.40;;;10.00;;
65597;SDS011;52267;51.984;20.956;2023-11-19T09:21:47;15.30;;;7.90;;
65597;SDS011;52267;51.984;20.956;2023-11-19T09:24:15;17.70;;;9.40;;
65597;SDS011;52267;51.984;20.956;2023-11-19T09:26:42;17.90;;;9.40;;
65597;SDS011;52267;51.984;20.956;2023-11-19T09:29:10;21.00;;;10.00;;
65597;SDS011;52267;51.984;20.956;2023-11-19T09:31:38;16.70;;;8.60;;
65597;SDS011;52267;51.984;20.956;2023-11-19T09:34:06;20.00;;;10.00;;
65597;SDS011;52267;51.984;20.956;2023-11-19T09:36:33;20.50;;;11.10;;
65597;SDS011;52267;51.984;20.956;2023-11-19T09:39:00;20.50;;;9.80;;
65597;SDS011;52267;51.984;20.956;2023-11-19T09:41:30;17.70;;;9.50;;
65597;SDS011;52267;51.984;20.956;2023-11-19T09:43:57;22.70;;;10.60;;
65597;SDS011;52267;51.984;20.956;2023-11-19T09:46:26;19.10;;;10.30;;
65597;SDS011;52267;51.984;20.956;2023-11-19T09:48:53;18.90;;;9.10;;
65597;SDS011;52267;51.984;20.956;2023-11-19T09:51:24;19.00;;;9.50;;
65597;SDS011;52267;51.984;20.956;2023-11-19T09:53:51;19.60;;;9.90;;
65597;SDS011;52267;51.984;20.956;2023-11-19T09:56:18;18.40;;;8.60;;
65597;SDS011;52267;51.984;20.956;2023-11-19T09:58:46;16.90;;;9.70;;
65597;SDS011;52267;51.984;20.956;2023-11-19T10:01:14;17.10;;;8.50;;
65597;SDS011;52267;51.984;20.956;2023-11-19T10:03:42;19.10;;;10.70;;
65597;SDS011;52267;51.984;20.956;2023-11-19T10:06:10;20.40;;;9.90;;
65597;SDS011;52267;51.984;20.956;2023-11-19T10:08:41;17.90;;;9.20;;
65597;SDS011;52267;51.984;20.956;2023-11-19T10:11:09;19.30;;;8.70;;
65597;SDS011;52267;51.984;20.956;2023-11-19T10:13:39;18.30;;;9.90;;
65597;SDS011;52267;51.984;20.956;2023-11-19T10:16:12;20.20;;;9.10;;
65597;SDS011;52267;51.984;20.956;2023-11-19T10:18:45;19.00;;;8.80;;
65597;SDS011;52267;51.984;20.956;2023-11-19T10:21:13;16.90;;;9.00;;
65597;SDS011;52267;51.984;20.956;2023-11-19T10:23:51;19.80;;;10.00;;
65597;SDS011;52267;51.984;20.956;2023-11-19T10:26:20;17.70;;;9.30;;
65597;SDS011;52267;51.984;20.956;2023-11-19T10:28:48;17.20;;;9.40;;
65597;SDS011;52267;51.984;20.956;2023-11-19T10:31:16;17.00;;;9.10;;
65597;SDS011;52267;51.984;20.956;2023-11-19T10:33:45;18.60;;;10.40;;
65597;SDS011;52267;51.984;20.956;2023-11-19T10:36:13;21.70;;;10.30;;
65597;SDS011;52267;51.984;20.956;2023-11-19T10:38:52;15.80;;;8.10;;
65597;SDS011;52267;51.984;20.956;2023-11-19T10:41:31;21.30;;;10.40;;
65597;SDS011;52267;51.984;20.956;2023-11-19T10:43:59;21.10;;;9.70;;
65597;SDS011;52267;51.984;20.956;2023-11-19T10:46:40;20.30;;;9.70;;
65597;SDS011;52267;51.984;20.956;2023-11-19T10:49:08;15.50;;;7.40;;
65597;SDS011;52267;51.984;20.956;2023-11-19T10:51:35;20.10;;;10.70;;
65597;SDS011;52267;51.984;20.956;2023-11-19T10:54:04;21.20;;;10.20;;
65597;SDS011;52267;51.984;20.956;2023-11-19T10:56:33;20.40;;;10.40;;
65597;SDS011;52267;51.984;20.956;2023-11-19T10:59:01;31.40;;;16.10;;
65597;SDS011;52267;51.984;20.956;2023-11-19T11:01:43;19.90;;;9.90;;
65597;SDS011;52267;51.984;20.956;2023-11-19T11:04:19;22.70;;;12.10;;
65597;SDS011;52267;51.984;20.956;2023-11-19T11:06:55;22.20;;;10.70;;
65597;SDS011;52267;51.984;20.956;2023-11-19T11:09:26;23.30;;;13.00;;
65597;SDS011;52267;51.984;20.956;2023-11-19T11:11:55;21.00;;;9.70;;
65597;SDS011;52267;51.984;20.956;2023-11-19T11:14:24;23.60;;;11.30;;
65597;SDS011;52267;51.984;20.956;2023-11-19T11:16:53;19.20;;;10.50;;
65597;SDS011;52267;51.984;20.956;2023-11-19T11:19:20;21.90;;;10.20;;
65597;SDS011;52267;51.984;20.956;2023-11-19T11:21:52;26.10;;;12.90;;
65597;SDS011;52267;51.984;20.956;2023-11-19T11:24:38;21.40;;;10.20;;
65597;SDS011;52267;51.984;20.956;2023-11-19T11:27:34;31.00;;;14.30;;
65597;SDS011;52267;51.984;20.956;2023-11-19T11:32:43;30.10;;;14.50;;
65597;SDS011;52267;51.984;20.956;2023-11-19T11:35:48;23.50;;;12.10;;
65597;SDS011;52267;51.984;20.956;2023-11-19T11:38:22;27.30;;;12.50;;
65597;SDS011;52267;51.984;20.956;2023-11-19T11:41:29;24.30;;;13.50;;
65597;SDS011;52267;51.984;20.956;2023-11-19T11:43:58;25.90;;;12.40;;
65597;SDS011;52267;51.984;20.956;2023-11-19T11:49:05;24.00;;;11.50;;
65597;SDS011;52267;51.984;20.956;2023-11-19T11:57:06;19.60;;;10.80;;
65597;SDS011;52267;51.984;20.956;2023-11-19T11:59:46;17.50;;;10.10;;
65597;SDS011;52267;51.984;20.956;2023-11-19T12:02:21;17.40;;;8.70;;
65597;SDS011;52267;51.984;20.956;2023-11-19T12:04:51;22.50;;;10.40;;
65597;SDS011;52267;51.984;20.956;2023-11-19T12:07:21;20.50;;;11.00;;
65597;SDS011;52267;51.984;20.956;2023-11-19T12:10:05;20.00;;;10.00;;
65597;SDS011;52267;51.984;20.956;2023-11-19T12:12:34;23.50;;;12.00;;
65597;SDS011;52267;51.984;20.956;2023-11-19T12:15:06;23.10;;;11.80;;
65597;SDS011;52267;51.984;20.956;2023-11-19T12:17:46;21.40;;;10.60;;
65597;SDS011;52267;51.984;20.956;2023-11-19T12:20:19;19.10;;;10.00;;
65597;SDS011;52267;51.984;20.956;2023-11-19T12:22:48;19.20;;;10.00;;
65597;SDS011;52267;51.984;20.956;2023-11-19T12:25:17;13.30;;;7.10;;
65597;SDS011;52267;51.984;20.956;2023-11-19T12:27:47;17.30;;;9.10;;
65597;SDS011;52267;51.984;20.956;2023-11-19T12:30:28;21.90;;;10.80;;
65597;SDS011;52267;51.984;20.956;2023-11-19T12:32:56;22.40;;;11.00;;
65597;SDS011;52267;51.984;20.956;2023-11-19T12:35:24;19.40;;;8.90;;
65597;SDS011;52267;51.984;20.956;2023-11-19T12:37:52;19.40;;;10.80;;
65597;SDS011;52267;51.984;20.956;2023-11-19T12:40:24;27.60;;;13.70;;
65597;SDS011;52267;51.984;20.956;2023-11-19T12:42:53;26.20;;;12.20;;
65597;SDS011;52267;51.984;20.956;2023-11-19T12:45:21;24.60;;;12.40;;
65597;SDS011;52267;51.984;20.956;2023-11-19T12:48:04;23.50;;;11.00;;
65597;SDS011;52267;51.984;20.956;2023-11-19T12:51:05;22.50;;;12.40;;
65597;SDS011;52267;51.984;20.956;2023-11-19T12:53:51;19.70;;;10.50;;
65597;SDS011;52267;51.984;20.956;2023-11-19T12:56:22;23.90;;;11.10;;
65597;SDS011;52267;51.984;20.956;2023-11-19T12:58:49;24.10;;;12.50;;
65597;SDS011;52267;51.984;20.956;2023-11-19T13:01:18;20.20;;;10.70;;
65597;SDS011;52267;51.984;20.956;2023-11-19T13:03:47;29.10;;;13.30;;
65597;SDS011;52267;51.984;20.956;2023-11-19T13:06:18;22.20;;;12.10;;
65597;SDS011;52267;51.984;20.956;2023-11-19T13:08:49;22.20;;;11.10;;
65597;SDS011;52267;51.984;20.956;2023-11-19T13:11:39;23.90;;;12.00;;
65597;SDS011;52267;51.984;20.956;2023-11-19T13:14:07;23.90;;;12.20;;
65597;SDS011;52267;51.984;20.956;2023-11-19T13:16:38;25.20;;;13.00;;
65597;SDS011;52267;51.984;20.956;2023-11-19T13:19:06;17.60;;;9.90;;
65597;SDS011;52267;51.984;20.956;2023-11-19T13:21:33;24.40;;;12.10;;
65597;SDS011;52267;51.984;20.956;2023-11-19T13:24:00;25.00;;;11.90;;
65597;SDS011;52267;51.984;20.956;2023-11-19T13:26:28;24.40;;;12.50;;
65597;SDS011;52267;51.984;20.956;2023-11-19T13:28:55;21.80;;;11.20;;
65597;SDS011;52267;51.984;20.956;2023-11-19T13:31:22;21.50;;;12.40;;
65597;SDS011;52267;51.984;20.956;2023-11-19T13:33:50;16.40;;;8.40;;
65597;SDS011;52267;51.984;20.956;2023-11-19T13:36:17;22.90;;;10.90;;
65597;SDS011;52267;51.984;20.956;2023-11-19T13:38:44;22.30;;;12.40;;
65597;SDS011;52267;51.984;20.956;2023-11-19T13:41:12;22.90;;;10.60;;
65597;SDS011;52267;51.984;20.956;2023-11-19T13:43:40;25.10;;;11.60;;
65597;SDS011;52267;51.984;20.956;2023-11-19T13:46:08;24.50;;;12.00;;
65597;SDS011;52267;51.984;20.956;2023-11-19T13:48:38;22.60;;;12.10;;
65597;SDS011;52267;51.984;20.956;2023-11-19T13:51:05;25.60;;;12.90;;
65597;SDS011;52267;51.984;20.956;2023-11-19T13:53:33;25.80;;;12.40;;
65597;SDS011;52267;51.984;20.956;2023-11-19T13:56:01;26.20;;;14.10;;
65597;SDS011;52267;51.984;20.956;2023-11-19T13:58:28;21.10;;;10.80;;
65597;SDS011;52267;51.984;20.956;2023-11-19T14:00:56;24.90;;;12.50;;
65597;SDS011;52267;51.984;20.956;2023-11-19T14:03:33;17.70;;;9.80;;
65597;SDS011;52267;51.984;20.956;2023-11-19T14:06:00;20.90;;;10.00;;
65597;SDS011;52267;51.984;20.956;2023-11-19T14:08:28;22.90;;;11.00;;
65597;SDS011;52267;51.984;20.956;2023-11-19T14:10:55;26.80;;;13.20;;
65597;SDS011;52267;51.984;20.956;2023-11-19T14:13:32;26.40;;;12.60;;
65597;SDS011;52267;51.984;20.956;2023-11-19T14:15:59;22.20;;;11.30;;
65597;SDS011;52267;51.984;20.956;2023-11-19T14:18:27;27.70;;;14.00;;
65597;SDS011;52267;51.984;20.956;2023-11-19T14:20:54;22.50;;;12.10;;
65597;SDS011;52267;51.984;20.956;2023-11-19T14:23:21;22.60;;;11.70;;
65597;SDS011;52267;51.984;20.956;2023-11-19T14:25:49;28.70;;;13.90;;
65597;SDS011;52267;51.984;20.956;2023-11-19T14:28:16;27.40;;;12.90;;
65597;SDS011;52267;51.984;20.956;2023-11-19T14:30:44;20.90;;;10.90;;
65597;SDS011;52267;51.984;20.956;2023-11-19T14:33:12;20.40;;;10.40;;
65597;SDS011;52267;51.984;20.956;2023-11-19T14:35:39;19.70;;;10.40;;
65597;SDS011;52267;51.984;20.956;2023-11-19T14:38:07;30.40;;;16.40;;